Terminal Aerodrome Forecast
Issued by NWS

Home | Current Version | Previous Version | Text Only | Print | Product List | Glossary On
Versions: 1 2 3 4 5 6 7 8 9 10 11 12 13 14 15 16
000
FTUS44 KEPZ 221100 RRA
TAFTCS
TAF
KTCS 221148Z 2212/2312 29009KT P6SM -SHRA FEW020 OVC050
     FM222100 20010KT P6SM -SHRA SCT040 BKN070
      TEMPO 2222/2302 -TSRA BKN040CB
     FM230400 24008KT P6SM FEW040 BKN120=

USA.gov is the U.S. government's official web portal to all federal, state and local government web resources and services.